createdAt,value
2018-05-06T00:01:58.928Z,11.40
2018-05-06T00:04:26.382Z,11.40
2018-05-06T00:06:53.856Z,11.30
2018-05-06T00:09:22.085Z,11.20
2018-05-06T00:11:49.540Z,11.20
2018-05-06T00:14:17.802Z,11.20
2018-05-06T00:16:45.256Z,11.20
2018-05-06T00:19:12.720Z,11.30
2018-05-06T00:21:40.178Z,11.50
2018-05-06T00:24:07.636Z,11.50
2018-05-06T00:26:35.100Z,11.40
2018-05-06T00:29:02.560Z,11.40
2018-05-06T00:31:30.021Z,11.40
2018-05-06T00:33:57.516Z,11.40
2018-05-06T00:36:24.989Z,11.30
2018-05-06T00:38:52.463Z,11.30
2018-05-06T00:41:19.925Z,11.30
2018-05-06T00:43:47.393Z,11.30
2018-05-06T00:46:15.653Z,11.40
2018-05-06T00:48:43.118Z,11.30
2018-05-06T00:51:10.573Z,11.40
2018-05-06T00:53:38.820Z,11.40
2018-05-06T00:56:06.273Z,11.40
2018-05-06T00:58:33.796Z,11.30
2018-05-06T01:01:01.256Z,11.20
2018-05-06T01:03:28.724Z,11.10
2018-05-06T01:05:56.190Z,11.00
2018-05-06T01:08:24.413Z,10.90
2018-05-06T01:10:51.919Z,10.80
2018-05-06T01:13:19.395Z,10.80
2018-05-06T01:15:46.855Z,10.60
2018-05-06T01:18:14.369Z,10.50
2018-05-06T01:20:41.829Z,10.40
2018-05-06T01:23:09.286Z,10.20
2018-05-06T01:25:37.508Z,9.90
2018-05-06T01:28:04.972Z,9.90
2018-05-06T01:30:32.426Z,9.90
2018-05-06T01:32:59.881Z,9.70
2018-05-06T01:35:27.351Z,9.60
2018-05-06T01:37:54.839Z,9.70
2018-05-06T01:40:22.328Z,9.50
2018-05-06T01:42:49.780Z,9.40
2018-05-06T01:45:17.240Z,9.40
2018-05-06T01:47:44.693Z,9.40
2018-05-06T01:50:12.257Z,9.20
2018-05-06T01:52:39.712Z,9.10
2018-05-06T01:55:07.179Z,9.00
2018-05-06T01:57:35.393Z,8.80
2018-05-06T02:00:03.628Z,8.80
2018-05-06T02:02:31.123Z,8.80
2018-05-06T02:04:58.623Z,8.80
2018-05-06T02:07:26.102Z,8.80
2018-05-06T02:09:53.565Z,8.70
2018-05-06T02:12:21.013Z,8.70
2018-05-06T02:14:50.056Z,8.50
2018-05-06T02:17:17.568Z,8.40
2018-05-06T02:19:45.062Z,8.40
2018-05-06T02:22:12.523Z,8.40
2018-05-06T02:24:40.029Z,8.40
2018-05-06T02:27:07.484Z,8.30
2018-05-06T02:29:35.700Z,8.00
2018-05-06T02:32:03.162Z,8.10
2018-05-06T02:34:30.708Z,8.00
2018-05-06T02:36:58.165Z,7.90
2018-05-06T02:39:25.630Z,7.80
2018-05-06T02:41:53.848Z,7.60
2018-05-06T02:44:21.324Z,7.60
2018-05-06T02:46:48.839Z,7.40
2018-05-06T02:49:16.292Z,7.30
2018-05-06T02:51:43.748Z,7.20
2018-05-06T02:54:11.296Z,7.20
2018-05-06T02:56:38.755Z,7.20
2018-05-06T02:59:06.210Z,7.20
2018-05-06T03:01:34.432Z,7.30
2018-05-06T03:04:01.953Z,7.20
2018-05-06T03:06:29.404Z,7.20
2018-05-06T03:08:56.870Z,7.20
2018-05-06T03:11:25.128Z,7.00
2018-05-06T03:13:52.588Z,7.00
2018-05-06T03:16:20.049Z,7.00
2018-05-06T03:18:48.270Z,6.80
2018-05-06T03:21:15.732Z,6.80
2018-05-06T03:23:43.189Z,6.80
2018-05-06T03:26:10.661Z,6.80
2018-05-06T03:28:38.124Z,6.80
2018-05-06T03:31:05.609Z,6.80
2018-05-06T03:33:33.192Z,6.90
2018-05-06T03:36:00.648Z,6.80
2018-05-06T03:38:28.164Z,6.80
2018-05-06T03:40:55.616Z,6.80
2018-05-06T03:43:23.841Z,6.60
2018-05-06T03:45:51.406Z,6.60
2018-05-06T03:48:18.835Z,6.60
2018-05-06T03:50:46.286Z,6.60
2018-05-06T03:53:13.741Z,6.50
2018-05-06T03:55:41.960Z,6.70
2018-05-06T03:58:21.303Z,6.70
2018-05-06T04:00:49.516Z,6.70
2018-05-06T04:03:16.972Z,6.70
2018-05-06T04:05:45.244Z,6.60
2018-05-06T04:08:12.724Z,6.60
2018-05-06T04:10:41.000Z,6.60
2018-05-06T04:13:08.471Z,6.60
2018-05-06T04:15:35.926Z,6.60
2018-05-06T04:18:04.200Z,6.60
2018-05-06T04:20:31.671Z,6.60
2018-05-06T04:22:59.156Z,6.70
2018-05-06T04:25:26.605Z,6.80
2018-05-06T04:27:54.067Z,6.90
2018-05-06T04:30:22.292Z,7.00
2018-05-06T04:32:50.519Z,7.00
2018-05-06T04:35:17.973Z,6.90
2018-05-06T04:37:46.227Z,7.00
2018-05-06T04:40:13.689Z,7.00
2018-05-06T04:42:41.216Z,7.00
2018-05-06T04:45:08.705Z,7.10
2018-05-06T04:47:36.201Z,7.20
2018-05-06T04:50:03.655Z,7.30
2018-05-06T04:52:31.104Z,7.40
2018-05-06T04:54:58.556Z,7.60
2018-05-06T04:57:26.812Z,7.80
2018-05-06T04:59:54.268Z,7.80
2018-05-06T05:02:21.721Z,7.90
2018-05-06T05:04:49.937Z,8.10
2018-05-06T05:07:17.393Z,8.00
2018-05-06T05:09:44.953Z,8.20
2018-05-06T05:12:12.439Z,8.30
2018-05-06T05:14:39.908Z,8.60
2018-05-06T05:17:07.408Z,8.80
2018-05-06T05:19:34.889Z,9.00
2018-05-06T05:22:02.372Z,9.20
2018-05-06T05:24:29.853Z,9.30
2018-05-06T05:26:57.332Z,9.40
2018-05-06T05:29:24.801Z,9.60
2018-05-06T05:31:52.356Z,9.70
2018-05-06T05:34:20.616Z,10.00
2018-05-06T05:36:48.046Z,10.00
2018-05-06T05:39:15.572Z,10.10
2018-05-06T05:41:43.058Z,10.30
2018-05-06T05:44:10.546Z,10.40
2018-05-06T05:46:38.009Z,10.60
2018-05-06T05:49:05.475Z,10.70
2018-05-06T05:51:32.988Z,10.90
2018-05-06T05:54:00.449Z,11.00
2018-05-06T05:56:27.928Z,11.10
2018-05-06T05:58:55.384Z,11.30
2018-05-06T06:01:23.659Z,11.50
2018-05-06T06:03:51.156Z,11.50
2018-05-06T06:06:19.380Z,11.70
2018-05-06T06:08:46.837Z,11.60
2018-05-06T06:11:14.388Z,11.70
2018-05-06T06:13:41.848Z,11.90
2018-05-06T06:16:09.309Z,12.00
2018-05-06T06:18:36.766Z,12.10
2018-05-06T06:21:04.223Z,12.20
2018-05-06T06:23:31.676Z,12.30
2018-05-06T06:25:59.195Z,12.30
2018-05-06T06:28:26.669Z,12.50
2018-05-06T06:30:54.133Z,12.50
2018-05-06T06:33:21.588Z,12.70
2018-05-06T06:35:49.814Z,12.90
2018-05-06T06:38:17.403Z,12.90
2018-05-06T06:40:44.812Z,13.00
2018-05-06T06:43:12.272Z,13.10
2018-05-06T06:45:39.726Z,13.20
2018-05-06T06:48:07.988Z,13.50
2018-05-06T06:50:36.283Z,13.50
2018-05-06T06:53:03.781Z,13.60
2018-05-06T06:55:31.240Z,13.70
2018-05-06T06:57:58.708Z,13.80
2018-05-06T07:00:26.167Z,13.90
2018-05-06T07:02:53.627Z,14.00
2018-05-06T07:05:21.082Z,14.20
2018-05-06T07:07:48.545Z,14.30
2018-05-06T07:10:15.995Z,14.50
2018-05-06T07:12:43.460Z,14.70
2018-05-06T07:15:10.928Z,14.80
2018-05-06T07:17:38.381Z,15.00
2018-05-06T07:20:06.608Z,15.80
2018-05-06T07:22:34.129Z,15.70
2018-05-06T07:25:01.620Z,16.90
2018-05-06T07:27:29.078Z,19.00
2018-05-06T07:29:56.620Z,21.30
2018-05-06T07:32:24.018Z,23.10
2018-05-06T07:34:51.473Z,24.10
2018-05-06T07:37:19.000Z,26.30
2018-05-06T07:39:46.465Z,27.00
2018-05-06T07:42:13.922Z,28.10
2018-05-06T07:44:41.444Z,29.70
2018-05-06T07:47:08.933Z,31.40
2018-05-06T07:49:36.433Z,32.00
2018-05-06T07:52:03.896Z,32.20
2018-05-06T07:54:31.362Z,32.40
2018-05-06T07:56:58.873Z,31.90
2018-05-06T07:59:26.379Z,32.30
2018-05-06T08:01:53.850Z,33.10
2018-05-06T08:04:21.316Z,33.70
2018-05-06T08:06:48.809Z,33.80
2018-05-06T08:09:16.322Z,34.60
2018-05-06T08:11:43.793Z,35.40
2018-05-06T08:14:11.266Z,36.30
2018-05-06T08:16:38.816Z,36.10
2018-05-06T08:19:07.061Z,36.00
2018-05-06T08:21:34.535Z,35.40
2018-05-06T08:24:02.005Z,35.50
2018-05-06T08:26:30.248Z,35.40
2018-05-06T08:28:57.736Z,35.40
2018-05-06T08:31:25.216Z,36.00
2018-05-06T08:33:52.693Z,36.50
2018-05-06T08:36:20.186Z,37.10
2018-05-06T08:38:47.649Z,35.90
2018-05-06T08:41:15.153Z,34.80
2018-05-06T08:43:42.638Z,33.80
2018-05-06T08:46:10.125Z,32.90
2018-05-06T08:48:37.640Z,32.10
2018-05-06T08:51:05.881Z,34.20
2018-05-06T08:53:33.345Z,34.20
2018-05-06T08:56:01.593Z,36.00
2018-05-06T08:58:29.057Z,36.00
2018-05-06T09:00:56.524Z,35.10
2018-05-06T09:03:24.052Z,36.10
2018-05-06T09:05:51.515Z,36.90
2018-05-06T09:08:18.973Z,37.90
2018-05-06T09:10:46.429Z,37.60
2018-05-06T09:13:14.659Z,37.90
2018-05-06T09:15:42.188Z,37.80
2018-05-06T09:18:09.650Z,38.30
2018-05-06T09:20:37.809Z,38.70
2018-05-06T09:23:05.376Z,36.90
2018-05-06T09:25:32.931Z,35.80
2018-05-06T09:28:00.440Z,37.60
2018-05-06T09:30:27.906Z,37.00
2018-05-06T09:32:55.377Z,38.10
2018-05-06T09:35:23.621Z,36.60
2018-05-06T09:37:51.089Z,36.60
2018-05-06T09:40:18.549Z,36.80
2018-05-06T09:42:46.016Z,36.30
2018-05-06T09:45:13.542Z,37.60
2018-05-06T09:47:41.169Z,38.30
2018-05-06T09:50:08.603Z,37.90
2018-05-06T09:52:36.104Z,37.40
2018-05-06T09:55:03.584Z,38.80
2018-05-06T09:57:31.252Z,38.30
2018-05-06T09:59:58.713Z,36.00
2018-05-06T10:02:26.181Z,37.10
2018-05-06T10:04:53.641Z,37.90
2018-05-06T10:07:21.880Z,39.40
2018-05-06T10:09:49.380Z,39.40
2018-05-06T10:12:16.872Z,38.40
2018-05-06T10:14:44.377Z,38.20
2018-05-06T10:17:11.848Z,37.50
2018-05-06T10:19:39.305Z,37.10
2018-05-06T10:22:06.761Z,37.30
2018-05-06T10:24:35.017Z,37.80
2018-05-06T10:27:02.477Z,37.90
2018-05-06T10:29:30.713Z,38.30
2018-05-06T10:31:58.217Z,38.30
2018-05-06T10:34:25.688Z,37.40
2018-05-06T10:36:53.210Z,38.20
2018-05-06T10:39:20.670Z,37.10
2018-05-06T10:41:48.140Z,36.60
2018-05-06T10:44:15.724Z,35.30
2018-05-06T10:46:43.112Z,33.80
2018-05-06T10:49:11.406Z,34.40
2018-05-06T10:51:38.823Z,34.40
2018-05-06T10:54:06.308Z,34.40
2018-05-06T10:56:33.776Z,35.40
2018-05-06T10:59:02.025Z,36.40
2018-05-06T11:01:29.584Z,36.40
2018-05-06T11:03:57.158Z,37.00
2018-05-06T11:06:24.549Z,36.10
2018-05-06T11:08:52.018Z,36.60
2018-05-06T11:11:20.464Z,36.30
2018-05-06T11:13:47.920Z,36.10
2018-05-06T11:16:15.385Z,34.30
2018-05-06T11:18:42.852Z,34.10
2018-05-06T11:21:11.089Z,33.60
2018-05-06T11:23:38.541Z,33.60
2018-05-06T11:26:06.017Z,34.40
2018-05-06T11:28:34.240Z,33.10
2018-05-06T11:31:01.716Z,33.10
2018-05-06T11:33:29.327Z,33.30
2018-05-06T11:35:56.709Z,32.20
2018-05-06T11:38:24.288Z,32.70
2018-05-06T11:40:51.781Z,32.80
2018-05-06T11:43:19.243Z,31.70
2018-05-06T11:45:46.716Z,30.50
2018-05-06T11:48:14.168Z,30.40
2018-05-06T11:50:41.634Z,30.90
2018-05-06T11:53:09.137Z,31.60
2018-05-06T11:55:36.608Z,30.30
2018-05-06T11:58:04.100Z,30.50
2018-05-06T12:00:31.588Z,31.30
2018-05-06T12:02:59.054Z,31.70
2018-05-06T12:05:26.514Z,31.50
2018-05-06T12:07:53.978Z,32.40
2018-05-06T12:10:22.206Z,31.00
2018-05-06T12:12:49.665Z,31.10
2018-05-06T12:15:17.888Z,30.70
2018-05-06T12:17:45.408Z,30.60
2018-05-06T12:20:12.875Z,30.80
2018-05-06T12:22:41.133Z,31.70
2018-05-06T12:25:08.697Z,31.70
2018-05-06T12:27:37.028Z,31.70
2018-05-06T12:30:04.512Z,31.90
2018-05-06T12:32:32.001Z,32.00
2018-05-06T12:34:59.504Z,32.20
2018-05-06T12:37:26.978Z,31.90
2018-05-06T12:39:54.446Z,31.40
2018-05-06T12:42:21.912Z,29.80
2018-05-06T12:44:50.210Z,30.30
2018-05-06T12:47:17.677Z,30.30
2018-05-06T12:49:45.142Z,30.80
2018-05-06T12:52:12.636Z,30.30
2018-05-06T12:54:40.243Z,30.50
2018-05-06T12:57:07.644Z,30.80
2018-05-06T12:59:35.880Z,31.70
2018-05-06T13:02:03.336Z,31.70
2018-05-06T13:04:30.795Z,31.70
2018-05-06T13:06:58.316Z,31.70
2018-05-06T13:09:25.777Z,31.40
2018-05-06T13:11:54.008Z,31.20
2018-05-06T13:14:21.484Z,31.20
2018-05-06T13:16:48.947Z,31.00
2018-05-06T13:19:16.471Z,30.80
2018-05-06T13:21:43.927Z,30.80
2018-05-06T13:24:11.427Z,31.50
2018-05-06T13:26:38.869Z,31.10
2018-05-06T13:29:06.343Z,31.40
2018-05-06T13:31:34.576Z,30.50
2018-05-06T13:34:02.040Z,30.40
2018-05-06T13:36:29.578Z,29.80
2018-05-06T13:38:57.062Z,29.30
2018-05-06T13:41:24.524Z,29.70
2018-05-06T13:43:52.805Z,29.80
2018-05-06T13:46:21.015Z,30.10
2018-05-06T13:48:48.489Z,30.10
2018-05-06T13:51:16.717Z,30.60
2018-05-06T13:53:44.197Z,30.50
2018-05-06T13:56:11.704Z,30.30
2018-05-06T13:58:39.188Z,29.20
2018-05-06T14:01:06.644Z,29.20
2018-05-06T14:03:34.107Z,29.40
2018-05-06T14:06:02.337Z,29.70
2018-05-06T14:08:29.852Z,29.70
2018-05-06T14:10:57.332Z,29.90
2018-05-06T14:13:24.793Z,30.00
2018-05-06T14:15:52.354Z,30.20
2018-05-06T14:18:19.730Z,30.50
2018-05-06T14:20:47.956Z,30.00
2018-05-06T14:23:15.422Z,29.90
2018-05-06T14:25:42.891Z,29.90
2018-05-06T14:28:10.464Z,29.90
2018-05-06T14:30:38.712Z,29.50
2018-05-06T14:33:06.172Z,29.50
2018-05-06T14:35:33.692Z,29.20
2018-05-06T14:38:01.176Z,29.40
2018-05-06T14:40:28.636Z,29.00
2018-05-06T14:42:56.135Z,28.50
2018-05-06T14:45:23.622Z,28.50
2018-05-06T14:48:03.068Z,27.60
2018-05-06T14:50:30.525Z,27.50
2018-05-06T14:52:58.778Z,27.40
2018-05-06T14:55:26.284Z,27.30
2018-05-06T14:57:53.741Z,27.10
2018-05-06T15:00:21.270Z,26.80
2018-05-06T15:02:48.745Z,26.70
2018-05-06T15:05:16.229Z,26.70
2018-05-06T15:07:43.700Z,26.60
2018-05-06T15:10:11.156Z,26.10
2018-05-06T15:12:39.394Z,26.00
2018-05-06T15:15:06.861Z,26.00
2018-05-06T15:17:34.352Z,25.80
2018-05-06T15:20:01.808Z,25.90
2018-05-06T15:22:30.067Z,25.60
2018-05-06T15:24:57.505Z,25.50
2018-05-06T15:27:24.965Z,25.50
2018-05-06T15:29:53.197Z,24.90
2018-05-06T15:32:20.652Z,24.90
2018-05-06T15:34:48.882Z,25.00
2018-05-06T15:37:17.104Z,24.90
2018-05-06T15:39:44.557Z,24.80
2018-05-06T15:42:12.784Z,24.90
2018-05-06T15:44:40.245Z,24.90
2018-05-06T15:47:07.778Z,24.90
2018-05-06T15:49:35.231Z,24.90
2018-05-06T15:52:02.698Z,24.80
2018-05-06T15:54:30.217Z,24.70
2018-05-06T15:56:57.677Z,24.60
2018-05-06T15:59:25.912Z,24.30
2018-05-06T16:02:05.352Z,24.30
2018-05-06T16:04:32.829Z,24.10
2018-05-06T16:07:00.354Z,24.10
2018-05-06T16:09:27.840Z,24.10
2018-05-06T16:11:55.392Z,24.10
2018-05-06T16:14:22.822Z,24.00
2018-05-06T16:16:50.277Z,24.00
2018-05-06T16:19:17.750Z,23.90
2018-05-06T16:21:45.972Z,23.70
2018-05-06T16:24:13.486Z,23.70
2018-05-06T16:26:41.048Z,23.60
2018-05-06T16:29:08.477Z,23.50
2018-05-06T16:31:35.961Z,23.50
2018-05-06T16:34:03.426Z,23.40
2018-05-06T16:36:30.884Z,23.40
2018-05-06T16:38:58.410Z,23.30
2018-05-06T16:41:29.955Z,23.30
2018-05-06T16:43:58.202Z,23.10
2018-05-06T16:46:25.670Z,23.00
2018-05-06T16:48:53.180Z,23.00
2018-05-06T16:51:20.644Z,22.90
2018-05-06T16:53:48.883Z,22.80
2018-05-06T16:56:16.376Z,22.80
2018-05-06T16:58:43.861Z,22.80
2018-05-06T17:01:11.329Z,22.80
2018-05-06T17:03:38.832Z,22.70
2018-05-06T17:06:06.308Z,22.60
2018-05-06T17:08:33.760Z,22.50
2018-05-06T17:11:01.260Z,22.50
2018-05-06T17:13:29.644Z,22.40
2018-05-06T17:15:57.900Z,22.30
2018-05-06T17:18:25.387Z,22.20
2018-05-06T17:20:53.242Z,22.20
2018-05-06T17:23:20.773Z,22.10
2018-05-06T17:25:48.242Z,22.00
2018-05-06T17:28:15.728Z,22.00
2018-05-06T17:30:43.213Z,21.80
2018-05-06T17:33:10.676Z,21.70
2018-05-06T17:35:38.897Z,21.60
2018-05-06T17:38:06.908Z,21.60
2018-05-06T17:40:34.415Z,21.60
2018-05-06T17:43:01.868Z,21.60
2018-05-06T17:45:29.334Z,21.50
2018-05-06T17:47:56.871Z,21.40
2018-05-06T17:50:24.320Z,21.40
2018-05-06T17:52:51.783Z,21.20
2018-05-06T17:55:19.235Z,21.20
2018-05-06T17:57:47.482Z,21.00
2018-05-06T18:00:14.935Z,21.00
2018-05-06T18:02:43.222Z,20.80
2018-05-06T18:05:10.773Z,20.80
2018-05-06T18:07:38.329Z,20.70
2018-05-06T18:10:05.794Z,20.60
2018-05-06T18:12:34.040Z,20.40
2018-05-06T18:15:01.501Z,20.40
2018-05-06T18:17:29.071Z,20.30
2018-05-06T18:19:57.317Z,20.10
2018-05-06T18:22:24.775Z,20.10
2018-05-06T18:24:52.231Z,20.00
2018-05-06T18:27:19.716Z,19.90
2018-05-06T18:29:47.201Z,19.90
2018-05-06T18:32:14.675Z,19.80
2018-05-06T18:34:42.133Z,19.70
2018-05-06T18:37:09.587Z,19.70
2018-05-06T18:39:37.822Z,19.60
2018-05-06T18:42:05.337Z,19.50
2018-05-06T18:44:32.792Z,19.50
2018-05-06T18:47:00.350Z,19.40
2018-05-06T18:49:27.801Z,19.30
2018-05-06T18:51:55.261Z,19.20
2018-05-06T18:54:22.726Z,19.10
2018-05-06T18:56:50.982Z,19.00
2018-05-06T18:59:18.455Z,18.90
2018-05-06T19:01:45.922Z,18.90
2018-05-06T19:04:13.383Z,18.70
2018-05-06T19:06:40.849Z,18.70
2018-05-06T19:09:08.332Z,18.60
2018-05-06T19:11:35.893Z,18.50
2018-05-06T19:14:03.348Z,18.50
2018-05-06T19:16:30.804Z,18.40
2018-05-06T19:18:58.276Z,18.40
2018-05-06T19:21:26.506Z,18.20
2018-05-06T19:23:53.960Z,18.10
2018-05-06T19:26:22.188Z,18.00
2018-05-06T19:28:49.644Z,18.00
2018-05-06T19:31:17.872Z,17.90
2018-05-06T19:33:45.328Z,17.90
2018-05-06T19:36:12.848Z,17.70
2018-05-06T19:38:40.324Z,17.60
2018-05-06T19:41:07.783Z,17.40
2018-05-06T19:43:35.240Z,17.30
2018-05-06T19:46:03.505Z,17.20
2018-05-06T19:48:30.965Z,17.20
2018-05-06T19:50:58.468Z,17.20
2018-05-06T19:53:25.949Z,17.10
2018-05-06T19:55:53.408Z,17.00
2018-05-06T19:58:20.932Z,17.00
2018-05-06T20:00:48.400Z,16.90
2018-05-06T20:03:15.861Z,16.80
2018-05-06T20:05:43.322Z,16.70
2018-05-06T20:08:12.280Z,16.60
2018-05-06T20:10:39.789Z,16.60
2018-05-06T20:13:07.715Z,16.60
2018-05-06T20:15:35.988Z,16.60
2018-05-06T20:18:03.473Z,16.50
2018-05-06T20:20:30.924Z,16.50
2018-05-06T20:22:59.149Z,16.40
2018-05-06T20:25:26.613Z,16.40
2018-05-06T20:27:54.081Z,16.50
2018-05-06T20:30:21.540Z,16.40
2018-05-06T20:32:49.807Z,16.30
2018-05-06T20:35:17.368Z,16.30
2018-05-06T20:37:44.836Z,16.20
2018-05-06T20:40:12.299Z,16.20
2018-05-06T20:42:39.820Z,16.10
2018-05-06T20:45:07.312Z,16.00
2018-05-06T20:47:34.861Z,16.00
2018-05-06T20:50:02.390Z,15.90
2018-05-06T20:52:29.840Z,15.80
2018-05-06T20:54:57.331Z,15.80
2018-05-06T20:57:24.787Z,15.70
2018-05-06T20:59:52.244Z,15.60
2018-05-06T21:02:20.464Z,15.30
2018-05-06T21:04:47.920Z,15.20
2018-05-06T21:07:15.377Z,15.20
2018-05-06T21:09:42.861Z,15.00
2018-05-06T21:12:10.322Z,15.00
2018-05-06T21:14:37.780Z,14.90
2018-05-06T21:17:05.332Z,14.80
2018-05-06T21:19:32.787Z,14.70
2018-05-06T21:22:00.313Z,14.70
2018-05-06T21:24:27.800Z,14.60
2018-05-06T21:26:55.288Z,14.50
2018-05-06T21:29:22.752Z,14.40
2018-05-06T21:31:50.254Z,14.30
2018-05-06T21:34:17.733Z,14.30
2018-05-06T21:36:45.263Z,14.20
2018-05-06T21:39:12.663Z,14.10
2018-05-06T21:41:40.129Z,14.10
2018-05-06T21:44:07.592Z,14.00
2018-05-06T21:46:35.150Z,13.90
2018-05-06T21:49:02.628Z,13.90
2018-05-06T21:51:30.101Z,13.80
2018-05-06T21:53:57.557Z,13.70
2018-05-06T21:56:25.116Z,13.50
2018-05-06T21:58:52.592Z,13.40
2018-05-06T22:01:21.006Z,13.40
2018-05-06T22:03:48.468Z,13.30
2018-05-06T22:06:15.931Z,13.20
2018-05-06T22:08:44.147Z,13.10
2018-05-06T22:11:11.675Z,13.10
2018-05-06T22:13:39.165Z,13.10
2018-05-06T22:16:06.629Z,12.90
2018-05-06T22:18:34.124Z,12.80
2018-05-06T22:21:01.580Z,12.70
2018-05-06T22:23:29.108Z,12.60
2018-05-06T22:25:56.582Z,12.50
2018-05-06T22:28:24.040Z,12.40
2018-05-06T22:30:51.497Z,12.40
2018-05-06T22:33:19.049Z,12.40
2018-05-06T22:35:46.522Z,12.30
2018-05-06T22:38:13.997Z,12.10
2018-05-06T22:40:41.502Z,12.00
2018-05-06T22:43:08.960Z,12.00
2018-05-06T22:45:36.441Z,11.90
2018-05-06T22:48:03.937Z,11.80
2018-05-06T22:50:31.397Z,11.80
2018-05-06T22:52:58.859Z,11.80
2018-05-06T22:55:27.089Z,11.60
2018-05-06T22:57:54.549Z,11.60
2018-05-06T23:00:22.046Z,11.60
2018-05-06T23:02:49.559Z,11.40
2018-05-06T23:05:17.016Z,11.40
2018-05-06T23:07:44.479Z,11.30
2018-05-06T23:10:12.733Z,11.20
2018-05-06T23:12:40.200Z,11.20
2018-05-06T23:15:07.699Z,11.20
2018-05-06T23:17:35.173Z,11.10
2018-05-06T23:20:02.660Z,11.10
2018-05-06T23:22:30.122Z,11.20
2018-05-06T23:24:57.626Z,11.20
2018-05-06T23:27:25.089Z,11.00
2018-05-06T23:29:52.549Z,10.90
2018-05-06T23:32:20.078Z,10.90
2018-05-06T23:34:47.557Z,10.80
2018-05-06T23:37:15.015Z,10.70
2018-05-06T23:39:42.484Z,10.70
2018-05-06T23:42:10.700Z,10.50
2018-05-06T23:44:38.218Z,10.50
2018-05-06T23:47:05.673Z,10.40
2018-05-06T23:49:33.124Z,10.40
2018-05-06T23:52:01.391Z,10.20
2018-05-06T23:54:28.882Z,10.10
2018-05-06T23:56:56.328Z,10.30
2018-05-06T23:59:23.833Z,10.30
